Time;durP1;ratioP1;P1;durP2;ratioP2;P2;SDS_P1;SDS_P2;PMS_P1;PMS_P2;Temp;Humidity;BMP_temperature;BMP_pressure;BME280_temperature;BME280_humidity;BME280_pressure;Samples;Min_cycle;Max_cycle;Signal;HPM_P1;HPM_P2
2021/11/10 00:00:39;;;;;;;4.70;3.33;;;5.40;99.90;;;;;;5071387;28;20547;-71
2021/11/10 00:03:04;;;;;;;9.17;4.37;;;5.30;99.90;;;;;;5050642;28;20218;-72
2021/11/10 00:05:30;;;;;;;4.13;3.43;;;5.20;99.90;;;;;;5070249;28;20231;-71
2021/11/10 00:07:56;;;;;;;6.17;4.17;;;5.30;99.90;;;;;;5052107;28;20302;-71
2021/11/10 00:10:21;;;;;;;7.20;4.67;;;5.30;99.90;;;;;;5069785;28;20211;-71
2021/11/10 00:12:47;;;;;;;4.50;3.00;;;5.40;99.90;;;;;;5069742;28;20223;-71
2021/11/10 00:15:13;;;;;;;5.20;3.60;;;5.30;99.90;;;;;;5053076;28;20249;-71
2021/11/10 00:17:40;;;;;;;4.07;3.40;;;5.20;99.90;;;;;;5070567;28;20711;-71
2021/11/10 00:20:08;;;;;;;8.67;3.80;;;5.30;99.90;;;;;;5068907;28;20227;-71
2021/11/10 00:22:33;;;;;;;7.60;4.30;;;5.20;99.90;;;;;;5070172;28;20489;-71
2021/11/10 00:24:59;;;;;;;4.53;3.53;;;5.30;99.90;;;;;;5070293;28;20515;-71
2021/11/10 00:27:25;;;;;;;5.87;3.40;;;5.20;99.90;;;;;;5053536;28;20207;-72
2021/11/10 00:29:50;;;;;;;7.40;3.93;;;5.10;99.90;;;;;;5068808;28;20704;-71
2021/11/10 00:32:16;;;;;;;7.23;4.27;;;5.10;99.90;;;;;;5070176;28;20215;-71
2021/11/10 00:34:42;;;;;;;7.10;3.33;;;5.20;99.90;;;;;;5069440;28;20272;-72
2021/11/10 00:37:09;;;;;;;4.80;3.63;;;5.10;99.90;;;;;;5068990;28;20456;-71
2021/11/10 00:39:35;;;;;;;5.13;3.40;;;5.10;99.90;;;;;;5070052;28;20464;-72
2021/11/10 00:42:01;;;;;;;7.50;3.80;;;5.20;99.90;;;;;;5085399;28;20548;-70
2021/11/10 00:44:26;;;;;;;7.47;4.50;;;5.20;99.90;;;;;;5068752;28;20215;-71
2021/11/10 00:46:52;;;;;;;5.43;4.10;;;5.20;99.90;;;;;;5067996;28;20341;-71
2021/11/10 00:49:18;;;;;;;4.20;3.67;;;5.20;99.90;;;;;;5070047;28;20229;-72
2021/11/10 00:51:43;;;;;;;4.30;3.37;;;5.20;99.90;;;;;;5069510;28;20277;-72
2021/11/10 00:54:09;;;;;;;5.70;3.60;;;5.30;99.90;;;;;;5067455;28;20230;-72
2021/11/10 00:56:35;;;;;;;4.73;3.80;;;5.30;99.90;;;;;;5053080;28;20229;-72
2021/11/10 00:59:01;;;;;;;5.13;3.10;;;5.30;99.90;;;;;;5068203;28;20542;-72
2021/11/10 01:01:27;;;;;;;4.10;3.40;;;5.30;99.90;;;;;;5069839;28;20223;-72
2021/11/10 01:03:53;;;;;;;6.33;4.20;;;5.30;99.90;;;;;;5050560;28;20223;-71
2021/11/10 01:06:18;;;;;;;5.47;3.63;;;5.30;99.90;;;;;;5052674;28;20473;-71
2021/11/10 01:08:45;;;;;;;5.40;4.00;;;5.30;99.90;;;;;;5069671;28;20248;-71
2021/11/10 01:11:11;;;;;;;7.07;3.60;;;5.30;99.90;;;;;;5067862;28;20215;-71
2021/11/10 01:13:38;;;;;;;4.30;3.57;;;5.20;99.90;;;;;;5069151;28;20466;-70
2021/11/10 01:16:06;;;;;;;5.00;3.87;;;5.20;99.90;;;;;;5084364;28;20466;-70
2021/11/10 01:18:33;;;;;;;6.30;3.80;;;5.20;99.90;;;;;;5061238;28;20913;-71
2021/11/10 01:21:03;;;;;;;3.80;3.40;;;5.10;99.90;;;;;;5067952;28;20453;-71
2021/11/10 01:23:30;;;;;;;6.17;4.10;;;5.20;99.90;;;;;;5052361;28;20449;-71
2021/11/10 01:25:55;;;;;;;5.30;3.90;;;5.20;99.90;;;;;;5050662;28;20496;-72
2021/11/10 01:28:21;;;;;;;4.50;3.53;;;5.20;99.90;;;;;;5069369;28;20453;-71
2021/11/10 01:30:47;;;;;;;3.73;3.30;;;5.20;99.90;;;;;;5052583;28;20457;-72
2021/11/10 01:33:13;;;;;;;7.67;4.10;;;5.20;99.90;;;;;;5051706;28;20222;-71
2021/11/10 01:35:40;;;;;;;10.23;4.60;;;5.20;99.90;;;;;;5069130;28;20597;-72
2021/11/10 01:38:06;;;;;;;3.93;3.50;;;5.20;99.90;;;;;;5067273;28;20549;-72
2021/11/10 01:40:32;;;;;;;5.53;3.73;;;5.20;99.90;;;;;;5068705;28;20219;-71
2021/11/10 01:43:05;;;;;;;7.53;4.07;;;5.20;99.90;;;;;;5066475;28;20561;-71
2021/11/10 01:45:33;;;;;;;3.50;3.20;;;5.20;99.90;;;;;;5068913;28;20663;-71
2021/11/10 01:47:59;;;;;;;6.70;4.03;;;5.20;99.90;;;;;;5065938;28;20971;-72
2021/11/10 01:50:25;;;;;;;5.33;3.93;;;5.10;99.90;;;;;;5068797;28;20454;-71
2021/11/10 01:52:52;;;;;;;5.90;4.47;;;5.10;99.90;;;;;;5050240;28;21031;-71
2021/11/10 01:55:17;;;;;;;6.63;3.80;;;5.10;99.90;;;;;;5068473;28;20466;-72
2021/11/10 01:57:47;;;;;;;3.80;3.30;;;5.10;99.90;;;;;;5068884;28;20231;-71
2021/11/10 02:00:29;;;;;;;3.50;2.67;;;5.10;99.90;;;;;;5061037;28;20471;-72
2021/11/10 02:03:05;;;;;;;6.20;3.70;;;5.10;99.90;;;;;;5066268;28;20454;-72
2021/11/10 02:05:52;;;;;;;5.53;3.80;;;5.10;99.90;;;;;;5066880;28;21003;-71
2021/11/10 02:08:36;;;;;;;6.87;4.40;;;5.10;99.90;;;;;;5062180;28;20504;-71
2021/11/10 02:11:11;;;;;;;6.37;3.93;;;5.10;99.90;;;;;;5050263;28;20893;-71
2021/11/10 02:13:44;;;;;;;5.87;3.67;;;5.00;99.90;;;;;;5067803;28;20496;-71
2021/11/10 02:16:10;;;;;;;4.07;3.50;;;5.00;99.90;;;;;;5066134;28;20531;-72
2021/11/10 02:18:39;;;;;;;12.77;3.97;;;5.00;99.90;;;;;;5051466;28;20454;-70
2021/11/10 02:21:10;;;;;;;4.87;3.80;;;5.00;99.90;;;;;;5066130;28;20310;-71
2021/11/10 02:23:36;;;;;;;5.20;3.73;;;5.00;99.90;;;;;;5051222;28;20893;-70
2021/11/10 02:26:05;;;;;;;6.20;4.23;;;4.90;99.90;;;;;;5049982;28;20500;-71
2021/11/10 02:28:30;;;;;;;5.07;3.37;;;4.90;99.90;;;;;;5067498;28;20216;-71
2021/11/10 02:30:56;;;;;;;4.30;3.63;;;4.90;99.90;;;;;;5066588;28;20491;-70
2021/11/10 02:33:27;;;;;;;6.40;3.50;;;4.90;99.90;;;;;;5067600;28;20223;-72
2021/11/10 02:36:02;;;;;;;6.83;4.30;;;4.90;99.90;;;;;;5067883;28;20473;-72
2021/11/10 02:38:29;;;;;;;6.00;4.23;;;4.90;99.90;;;;;;5068136;28;20881;-72
2021/11/10 02:40:58;;;;;;;4.77;4.30;;;4.90;99.90;;;;;;5049187;28;20470;-69
2021/11/10 02:43:25;;;;;;;4.50;3.50;;;4.90;99.90;;;;;;5067150;28;20457;-72
2021/11/10 02:45:52;;;;;;;4.13;3.23;;;4.80;99.90;;;;;;5065518;28;20491;-71
2021/11/10 02:48:17;;;;;;;8.73;5.10;;;4.80;99.90;;;;;;5067670;28;20460;-72
2021/11/10 02:50:43;;;;;;;7.23;4.37;;;4.80;99.90;;;;;;5050454;28;20458;-72
2021/11/10 02:53:10;;;;;;;4.77;3.80;;;4.90;99.90;;;;;;5082653;28;20647;-71
2021/11/10 02:55:36;;;;;;;7.70;3.87;;;4.90;99.90;;;;;;5067795;28;20223;-71
2021/11/10 02:58:03;;;;;;;9.40;5.10;;;4.80;99.90;;;;;;5065993;28;20492;-72
2021/11/10 03:00:30;;;;;;;7.37;3.90;;;4.80;99.90;;;;;;5062919;28;20305;-71
2021/11/10 03:02:57;;;;;;;6.63;3.90;;;4.80;99.90;;;;;;5065558;28;20458;-69
2021/11/10 03:05:26;;;;;;;6.70;3.90;;;4.80;99.90;;;;;;5066764;28;20987;-72
2021/11/10 03:07:53;;;;;;;6.43;3.70;;;4.80;99.90;;;;;;5065979;28;20527;-72
2021/11/10 03:10:19;;;;;;;4.97;4.00;;;4.80;99.90;;;;;;5050774;28;20450;-72
2021/11/10 03:12:45;;;;;;;7.60;3.93;;;4.80;99.90;;;;;;5066562;28;20465;-70
2021/11/10 03:15:15;;;;;;;3.93;3.40;;;4.80;99.90;;;;;;5049389;28;20275;-72
2021/11/10 03:17:41;;;;;;;4.80;3.63;;;4.80;99.90;;;;;;5066750;28;20461;-71
2021/11/10 03:20:08;;;;;;;6.50;4.53;;;4.70;99.90;;;;;;5063366;28;20575;-71
2021/11/10 03:22:39;;;;;;;6.10;4.37;;;4.70;99.90;;;;;;5065636;28;20276;-72
2021/11/10 03:25:05;;;;;;;5.70;4.10;;;4.70;99.90;;;;;;5065397;28;20564;-72
2021/11/10 03:27:32;;;;;;;7.07;4.33;;;4.70;99.90;;;;;;5050010;28;20207;-72
2021/11/10 03:30:03;;;;;;;9.40;5.03;;;4.50;99.90;;;;;;5065012;28;20457;-72
2021/11/10 03:32:41;;;;;;;7.77;4.60;;;4.50;99.90;;;;;;5066014;28;21051;-72
2021/11/10 03:35:09;;;;;;;7.23;4.30;;;4.60;99.90;;;;;;5065442;28;20460;-71
2021/11/10 03:37:38;;;;;;;5.83;4.30;;;4.60;99.90;;;;;;5067160;28;20583;-72
2021/11/10 03:40:08;;;;;;;5.67;4.00;;;4.60;99.90;;;;;;5065560;28;20451;-71
2021/11/10 03:42:36;;;;;;;8.03;3.80;;;4.60;99.90;;;;;;5061503;28;20456;-70
2021/11/10 03:45:03;;;;;;;6.97;4.37;;;4.60;99.90;;;;;;5064894;28;20453;-72
2021/11/10 03:47:30;;;;;;;9.00;4.73;;;4.60;99.90;;;;;;5066925;28;20215;-71
2021/11/10 03:49:55;;;;;;;7.03;4.50;;;4.60;99.90;;;;;;5049000;28;20453;-70
2021/11/10 03:52:21;;;;;;;6.70;4.20;;;4.60;99.90;;;;;;5050289;28;20219;-71
2021/11/10 03:54:47;;;;;;;7.40;4.80;;;4.60;99.90;;;;;;5062808;28;20212;-71
2021/11/10 03:57:14;;;;;;;6.50;4.80;;;4.50;99.90;;;;;;5066324;28;20302;-72
2021/11/10 03:59:41;;;;;;;9.83;5.13;;;4.60;99.90;;;;;;5066436;28;20480;-72
2021/11/10 04:02:09;;;;;;;5.97;4.07;;;4.50;99.90;;;;;;5048377;28;21040;-71
2021/11/10 04:04:35;;;;;;;6.77;4.60;;;4.50;99.90;;;;;;5066688;28;20700;-71
2021/11/10 04:07:00;;;;;;;11.63;5.33;;;4.60;99.90;;;;;;5065182;28;20496;-71
2021/11/10 04:09:27;;;;;;;10.37;5.87;;;4.50;99.90;;;;;;5066600;28;21009;-71
2021/11/10 04:11:53;;;;;;;9.03;5.07;;;4.50;99.90;;;;;;5064146;28;20476;-72
2021/11/10 04:14:19;;;;;;;9.07;5.10;;;4.60;99.90;;;;;;5065344;28;20453;-71
2021/11/10 04:16:45;;;;;;;8.10;4.60;;;4.60;99.90;;;;;;5065796;28;20701;-71
2021/11/10 04:19:12;;;;;;;8.60;5.00;;;4.50;99.90;;;;;;5063828;28;20219;-71
2021/11/10 04:21:38;;;;;;;5.30;3.53;;;4.50;99.90;;;;;;5065910;28;20510;-72
2021/11/10 04:24:06;;;;;;;6.87;4.80;;;4.50;99.90;;;;;;5064405;28;20220;-71
2021/11/10 04:26:37;;;;;;;6.63;4.20;;;4.50;99.90;;;;;;5065895;28;20492;-72
2021/11/10 04:29:10;;;;;;;5.63;4.20;;;4.50;99.90;;;;;;5049125;28;20449;-71
2021/11/10 04:31:36;;;;;;;6.40;4.30;;;4.50;99.90;;;;;;5066641;28;20449;-71
2021/11/10 04:34:04;;;;;;;5.37;3.80;;;4.30;99.90;;;;;;5050822;28;20234;-71
2021/11/10 04:36:31;;;;;;;5.80;4.00;;;4.40;99.90;;;;;;5064103;28;20483;-71
2021/11/10 04:38:58;;;;;;;7.37;4.90;;;4.40;99.90;;;;;;5068352;28;20488;-70
2021/11/10 04:41:27;;;;;;;6.73;4.50;;;4.40;99.90;;;;;;5053450;28;20870;-71
2021/11/10 04:43:54;;;;;;;13.30;4.13;;;4.40;99.90;;;;;;5084412;28;20461;-71
2021/11/10 04:46:29;;;;;;;6.30;4.43;;;4.40;99.90;;;;;;5069752;28;20536;-71
2021/11/10 04:48:54;;;;;;;7.87;4.77;;;4.40;99.90;;;;;;5068577;28;20815;-72
2021/11/10 04:51:23;;;;;;;6.23;3.40;;;4.40;99.90;;;;;;5069561;28;20464;-71
2021/11/10 04:53:49;;;;;;;5.93;3.90;;;4.50;99.90;;;;;;5050845;28;20227;-71
2021/11/10 04:56:15;;;;;;;8.30;4.70;;;4.50;99.90;;;;;;5069438;28;20453;-70
2021/11/10 04:58:42;;;;;;;5.07;3.87;;;4.40;99.90;;;;;;5069684;28;20510;-71
2021/11/10 05:01:43;;;;;;;5.40;3.97;;;4.40;99.90;;;;;;5068558;28;20490;-71
2021/11/10 05:04:06;;;;;;;5.47;4.03;;;4.40;99.90;;;;;;5066221;28;20540;-71
2021/11/10 05:06:33;;;;;;;5.70;3.30;;;4.40;99.90;;;;;;5069602;28;20477;-71
2021/11/10 05:08:59;;;;;;;5.63;3.77;;;4.40;99.90;;;;;;5068060;28;20454;-71
2021/11/10 05:11:25;;;;;;;5.90;4.17;;;4.40;99.90;;;;;;5052456;28;20561;-71
2021/11/10 05:13:52;;;;;;;12.27;4.33;;;4.40;99.90;;;;;;5067767;28;20838;-71
2021/11/10 05:16:18;;;;;;;6.63;4.93;;;4.40;99.90;;;;;;5068866;28;20881;-71
2021/11/10 05:18:46;;;;;;;5.33;3.90;;;4.40;99.90;;;;;;5061221;28;20458;-71
2021/11/10 05:21:15;;;;;;;5.90;3.70;;;4.40;99.90;;;;;;5069371;28;20465;-72
2021/11/10 05:23:41;;;;;;;6.37;3.60;;;4.40;99.90;;;;;;5068755;28;20472;-71
2021/11/10 05:26:07;;;;;;;5.10;3.23;;;4.40;99.90;;;;;;5052112;28;20483;-71
2021/11/10 05:28:33;;;;;;;6.53;4.37;;;4.40;99.90;;;;;;5068874;28;20222;-71
2021/11/10 05:30:58;;;;;;;8.47;4.13;;;4.30;99.90;;;;;;5067005;28;20696;-71
2021/11/10 05:33:24;;;;;;;6.57;3.90;;;4.30;99.90;;;;;;5068754;28;20241;-71
2021/11/10 05:35:53;;;;;;;7.17;4.07;;;4.30;99.90;;;;;;5067322;28;20237;-71
2021/11/10 05:38:18;;;;;;;6.13;4.23;;;4.30;99.90;;;;;;5052140;28;20258;-71
2021/11/10 05:40:44;;;;;;;7.80;3.70;;;4.30;99.90;;;;;;5069246;28;20489;-70
2021/11/10 05:43:10;;;;;;;7.47;3.80;;;4.30;99.90;;;;;;5066250;28;20298;-72
2021/11/10 05:45:35;;;;;;;4.70;3.60;;;4.30;99.90;;;;;;5067560;28;20628;-71
2021/11/10 05:48:01;;;;;;;5.80;4.57;;;4.30;99.90;;;;;;5067092;28;20215;-71
2021/11/10 05:50:27;;;;;;;5.67;4.43;;;4.20;99.90;;;;;;5052107;28;20226;-71
2021/11/10 05:52:52;;;;;;;6.07;4.60;;;4.10;99.90;;;;;;5066897;28;20215;-71
2021/11/10 05:55:22;;;;;;;9.40;4.10;;;4.10;99.90;;;;;;5051467;28;20231;-71
2021/11/10 05:57:49;;;;;;;8.00;4.13;;;4.20;99.90;;;;;;5070148;28;20234;-71
2021/11/10 06:00:14;;;;;;;5.77;3.90;;;4.20;99.90;;;;;;5067233;28;20460;-71
2021/11/10 06:02:41;;;;;;;8.53;4.27;;;4.10;99.90;;;;;;5068303;28;20536;-71
2021/11/10 06:05:08;;;;;;;7.10;4.47;;;4.10;99.90;;;;;;5067059;28;20227;-70
2021/11/10 06:07:34;;;;;;;4.17;3.20;;;4.20;99.90;;;;;;5068649;28;20453;-71
2021/11/10 06:10:01;;;;;;;7.67;3.97;;;4.20;99.90;;;;;;5062115;28;20458;-72
2021/11/10 06:12:26;;;;;;;5.63;3.93;;;4.20;99.90;;;;;;5067896;28;20553;-71
2021/11/10 06:14:52;;;;;;;6.43;4.07;;;4.20;99.90;;;;;;5067677;28;20505;-71
2021/11/10 06:17:17;;;;;;;5.33;4.33;;;4.20;99.90;;;;;;5067616;28;20242;-71
2021/11/10 06:19:43;;;;;;;6.30;4.43;;;4.20;99.90;;;;;;5067990;28;20235;-71
2021/11/10 06:22:09;;;;;;;11.13;4.23;;;4.20;99.90;;;;;;5065351;28;20677;-72
2021/11/10 06:24:34;;;;;;;7.70;3.40;;;4.20;99.90;;;;;;5068256;28;20617;-70
2021/11/10 06:27:00;;;;;;;7.20;5.07;;;4.20;99.90;;;;;;5066279;28;20225;-72
2021/11/10 06:29:26;;;;;;;8.80;5.20;;;4.20;99.90;;;;;;5049118;28;20211;-72
2021/11/10 06:31:52;;;;;;;6.60;4.47;;;4.20;99.90;;;;;;5066899;28;20647;-71
2021/11/10 06:34:17;;;;;;;7.10;4.53;;;4.20;99.90;;;;;;5067110;28;20219;-71
2021/11/10 06:36:43;;;;;;;7.20;5.00;;;4.20;99.90;;;;;;5067050;28;20223;-71
2021/11/10 06:39:09;;;;;;;6.93;4.70;;;4.10;99.90;;;;;;5048449;28;20219;-71
2021/11/10 06:41:35;;;;;;;9.00;5.53;;;4.20;99.90;;;;;;5050945;28;20215;-71
2021/11/10 06:44:01;;;;;;;10.97;7.20;;;4.20;99.90;;;;;;5064648;28;20387;-70
2021/11/10 06:46:27;;;;;;;10.30;7.10;;;4.20;99.90;;;;;;5050615;28;20223;-72
2021/11/10 06:48:54;;;;;;;10.47;5.93;;;4.10;99.90;;;;;;5064474;28;20995;-71
2021/11/10 06:51:19;;;;;;;7.93;5.17;;;4.10;99.90;;;;;;5067246;28;20476;-71
2021/11/10 06:53:45;;;;;;;11.30;5.50;;;4.10;99.90;;;;;;5068029;28;20542;-71
2021/11/10 06:56:11;;;;;;;10.73;5.80;;;4.10;99.90;;;;;;5065488;28;20461;-69
2021/11/10 06:58:38;;;;;;;13.97;6.53;;;4.10;99.90;;;;;;5067573;28;20687;-71
2021/11/10 07:01:04;;;;;;;10.40;6.07;;;4.10;99.90;;;;;;5065115;28;20488;-70
2021/11/10 07:03:30;;;;;;;9.93;6.17;;;4.10;99.90;;;;;;5050245;28;20986;-71
2021/11/10 07:05:56;;;;;;;8.80;5.10;;;4.00;99.90;;;;;;5048080;28;20523;-71
2021/11/10 07:08:22;;;;;;;9.20;5.20;;;4.00;99.90;;;;;;5067157;28;20352;-71
2021/11/10 07:10:48;;;;;;;9.40;5.93;;;4.10;99.90;;;;;;5066374;28;20246;-71
2021/11/10 07:13:13;;;;;;;13.90;6.83;;;4.00;99.90;;;;;;5058256;28;20921;-70
2021/11/10 07:15:39;;;;;;;14.77;8.10;;;4.00;99.90;;;;;;5067606;28;20223;-71
2021/11/10 07:18:05;;;;;;;16.93;8.07;;;4.00;99.90;;;;;;5065463;28;20222;-72
2021/11/10 07:20:30;;;;;;;11.57;7.27;;;4.00;99.90;;;;;;5061131;28;20231;-71
2021/11/10 07:22:59;;;;;;;10.33;7.27;;;4.00;99.90;;;;;;5065370;28;20250;-71
2021/11/10 07:25:29;;;;;;;20.70;7.20;;;4.00;99.90;;;;;;5065217;28;20688;-70
2021/11/10 07:27:55;;;;;;;17.57;8.03;;;4.00;99.90;;;;;;5064133;28;20473;-71
2021/11/10 07:30:21;;;;;;;15.13;8.13;;;4.00;99.90;;;;;;5066388;28;20483;-71
2021/11/10 07:32:47;;;;;;;18.07;8.80;;;4.00;99.90;;;;;;5049853;28;20874;-71
2021/11/10 07:35:13;;;;;;;14.07;7.13;;;4.00;99.90;;;;;;5064882;28;20752;-72
2021/11/10 07:37:41;;;;;;;14.10;7.43;;;4.00;99.90;;;;;;5066837;28;20468;-72
2021/11/10 07:40:07;;;;;;;11.00;6.33;;;4.00;99.90;;;;;;5064952;28;20453;-71
2021/11/10 07:42:34;;;;;;;11.00;5.87;;;4.00;99.90;;;;;;5063712;28;20540;-70
2021/11/10 07:45:09;;;;;;;10.50;6.90;;;4.00;99.90;;;;;;5064483;28;20450;-72
2021/11/10 07:47:41;;;;;;;8.77;6.60;;;4.00;99.90;;;;;;5066961;28;20463;-72
2021/11/10 07:50:18;;;;;;;14.17;7.80;;;4.00;99.90;;;;;;5065608;28;20528;-71
2021/11/10 07:52:45;;;;;;;14.23;7.43;;;4.00;99.90;;;;;;5066542;28;20550;-71
2021/11/10 07:55:12;;;;;;;12.40;7.33;;;4.00;99.90;;;;;;5064656;28;20452;-72
2021/11/10 07:57:38;;;;;;;14.03;7.87;;;4.00;99.90;;;;;;5066751;28;20454;-71
2021/11/10 08:00:13;;;;;;;14.57;8.30;;;4.00;99.90;;;;;;5064340;28;20464;-71
2021/11/10 08:02:40;;;;;;;18.70;9.70;;;4.00;99.90;;;;;;5061759;28;20222;-71
2021/11/10 08:05:06;;;;;;;12.90;8.57;;;4.00;99.90;;;;;;5065000;28;20843;-72
2021/11/10 08:07:32;;;;;;;12.27;8.23;;;4.00;99.90;;;;;;5066570;28;21036;-71
2021/11/10 08:09:58;;;;;;;18.73;10.57;;;4.00;99.90;;;;;;5069947;28;20465;-71
2021/11/10 08:12:24;;;;;;;20.23;11.50;;;4.10;99.90;;;;;;5069496;28;20230;-71
2021/11/10 08:14:50;;;;;;;19.53;10.70;;;4.10;99.90;;;;;;5051855;28;20211;-71
2021/11/10 08:17:16;;;;;;;19.93;10.60;;;4.10;99.90;;;;;;5069940;28;20483;-71
2021/11/10 08:19:41;;;;;;;21.80;10.70;;;4.20;99.90;;;;;;5070643;28;20215;-72
2021/11/10 08:22:07;;;;;;;14.00;9.23;;;4.20;99.90;;;;;;5068351;28;20219;-72
2021/11/10 08:24:33;;;;;;;13.40;7.87;;;4.20;99.90;;;;;;5069036;28;20226;-72
2021/11/10 08:26:59;;;;;;;12.33;8.07;;;4.30;99.90;;;;;;5084901;28;20258;-71
2021/11/10 08:29:25;;;;;;;12.43;7.83;;;4.30;99.90;;;;;;5069244;28;20238;-72
2021/11/10 08:31:52;;;;;;;14.03;7.93;;;4.30;99.90;;;;;;5068239;28;20457;-72
2021/11/10 08:34:18;;;;;;;15.93;8.77;;;4.40;99.90;;;;;;5069874;28;20230;-71
2021/11/10 08:36:44;;;;;;;14.60;8.93;;;4.40;99.90;;;;;;5070292;28;20465;-72
2021/11/10 08:39:10;;;;;;;12.73;8.30;;;4.40;99.90;;;;;;5068581;28;20495;-72
2021/11/10 08:41:36;;;;;;;13.23;7.43;;;4.40;99.90;;;;;;5069551;28;20233;-70
2021/11/10 08:44:02;;;;;;;13.33;7.13;;;4.40;99.90;;;;;;5068353;28;20218;-70
2021/11/10 08:46:29;;;;;;;9.67;6.77;;;4.50;99.90;;;;;;5070081;28;20465;-71
2021/11/10 08:48:55;;;;;;;11.23;7.40;;;4.50;99.90;;;;;;5068946;28;20453;-71
2021/11/10 08:51:21;;;;;;;13.23;8.10;;;4.60;99.90;;;;;;5070144;28;21031;-72
2021/11/10 08:53:47;;;;;;;9.67;7.00;;;4.60;99.90;;;;;;5069654;28;20472;-72
2021/11/10 08:56:13;;;;;;;8.87;6.33;;;4.60;99.90;;;;;;5068896;28;20548;-72
2021/11/10 08:58:39;;;;;;;8.80;6.40;;;4.70;99.90;;;;;;5069863;28;20834;-72
2021/11/10 09:01:05;;;;;;;10.33;6.17;;;4.70;99.90;;;;;;5068467;28;20464;-73
2021/11/10 09:03:31;;;;;;;10.00;6.30;;;4.70;99.90;;;;;;5069309;28;20230;-71
2021/11/10 09:05:57;;;;;;;10.90;5.57;;;4.80;99.90;;;;;;5068368;28;20223;-72
2021/11/10 09:08:27;;;;;;;9.07;6.40;;;4.90;99.90;;;;;;5069411;28;20238;-72
2021/11/10 09:10:53;;;;;;;12.97;6.90;;;4.90;99.90;;;;;;5083223;28;20508;-72
2021/11/10 09:13:20;;;;;;;10.77;6.97;;;5.00;99.90;;;;;;5067989;28;20454;-72
2021/11/10 09:15:46;;;;;;;9.07;7.13;;;5.10;99.90;;;;;;5068471;28;20461;-71
2021/11/10 09:18:12;;;;;;;13.53;7.67;;;5.30;99.90;;;;;;5068205;28;20457;-71
2021/11/10 09:20:39;;;;;;;10.47;7.83;;;5.40;99.90;;;;;;5068164;28;20485;-71
2021/11/10 09:23:07;;;;;;;9.40;6.50;;;5.50;99.90;;;;;;5067225;28;20459;-71
2021/11/10 09:25:35;;;;;;;13.57;7.00;;;5.60;99.90;;;;;;5047752;28;20470;-72
2021/11/10 09:28:02;;;;;;;9.97;5.83;;;5.60;99.90;;;;;;5059195;28;20837;-72
2021/11/10 09:30:29;;;;;;;11.70;6.30;;;5.60;99.90;;;;;;5085140;28;20445;-72
2021/11/10 09:32:57;;;;;;;8.63;6.47;;;5.60;99.90;;;;;;5063022;28;20534;-72
2021/11/10 09:35:24;;;;;;;11.67;5.73;;;5.60;99.90;;;;;;5067789;28;21112;-72
2021/11/10 09:37:55;;;;;;;8.50;6.23;;;5.70;99.90;;;;;;5067363;28;20457;-72
2021/11/10 09:40:24;;;;;;;15.10;6.77;;;5.80;99.90;;;;;;5068938;28;20465;-72
2021/11/10 09:42:51;;;;;;;12.10;7.03;;;5.90;99.90;;;;;;5066318;28;20461;-71
2021/11/10 09:45:19;;;;;;;13.63;7.23;;;6.00;99.90;;;;;;5067235;28;20504;-72
2021/11/10 09:47:46;;;;;;;9.03;6.13;;;6.00;99.90;;;;;;5062741;28;20461;-72
2021/11/10 09:50:15;;;;;;;12.87;6.73;;;6.00;99.90;;;;;;5066611;28;20445;-72
2021/11/10 09:52:41;;;;;;;8.90;5.77;;;6.10;99.90;;;;;;5051785;28;20507;-72
2021/11/10 09:55:09;;;;;;;9.90;7.10;;;6.10;99.90;;;;;;5067001;28;20591;-71
2021/11/10 09:57:35;;;;;;;18.10;7.47;;;6.20;99.90;;;;;;5068319;28;20441;-72
2021/11/10 10:00:06;;;;;;;10.80;7.23;;;6.30;99.90;;;;;;5065428;28;20553;-72
2021/11/10 10:02:40;;;;;;;16.40;7.20;;;6.30;99.90;;;;;;5069404;28;20438;-72
2021/11/10 10:05:07;;;;;;;13.53;7.90;;;6.30;99.90;;;;;;5066446;28;20449;-72
2021/11/10 10:07:33;;;;;;;14.80;7.30;;;6.30;99.90;;;;;;5068622;28;20462;-71
2021/11/10 10:09:58;;;;;;;9.17;6.80;;;6.40;99.90;;;;;;5066482;28;20465;-72
2021/11/10 10:12:24;;;;;;;9.63;6.63;;;6.50;99.90;;;;;;5067740;28;20648;-72
2021/11/10 10:14:52;;;;;;;8.70;5.10;;;6.50;99.90;;;;;;5049870;28;20215;-71
2021/11/10 10:17:57;;;;;;;10.33;6.50;;;6.60;99.90;;;;;;5065629;28;20246;-71
2021/11/10 10:20:22;;;;;;;10.73;7.13;;;6.60;99.90;;;;;;5034086;28;20454;-72
2021/11/10 10:22:53;;;;;;;13.13;6.23;;;6.60;99.90;;;;;;5064324;28;20457;-72
2021/11/10 10:25:19;;;;;;;10.20;5.83;;;6.60;99.90;;;;;;5067670;28;20226;-72
2021/11/10 10:27:57;;;;;;;11.40;5.80;;;6.60;99.90;;;;;;5085008;28;20458;-72
2021/11/10 10:30:28;;;;;;;9.40;6.60;;;6.60;99.90;;;;;;5060531;28;20449;-72
2021/11/10 10:33:22;;;;;;;11.30;6.87;;;6.70;99.90;;;;;;5068862;28;20464;-73
2021/11/10 10:35:54;;;;;;;11.67;7.33;;;6.70;99.90;;;;;;5067823;28;20489;-73
2021/11/10 10:38:24;;;;;;;15.17;7.90;;;6.70;99.90;;;;;;5067476;28;20544;-73
2021/11/10 10:40:52;;;;;;;8.00;5.70;;;6.70;99.90;;;;;;5066393;28;20544;-73
2021/11/10 10:43:19;;;;;;;9.53;6.87;;;6.80;99.90;;;;;;5067481;28;20445;-73
2021/11/10 10:45:53;;;;;;;8.50;6.67;;;6.70;99.90;;;;;;5053441;28;20509;-73
2021/11/10 10:48:28;;;;;;;15.63;8.00;;;6.70;99.90;;;;;;5065001;28;20485;-72
2021/11/10 10:51:13;;;;;;;10.20;6.70;;;6.70;99.90;;;;;;5065481;28;20495;-73
2021/11/10 10:53:43;;;;;;;9.93;6.33;;;6.70;99.90;;;;;;5067117;28;20456;-73
2021/11/10 10:56:28;;;;;;;8.07;5.73;;;6.80;99.90;;;;;;5049629;28;20862;-73
2021/11/10 10:59:01;;;;;;;9.83;5.97;;;6.80;99.90;;;;;;5044976;28;20503;-71
2021/11/10 11:01:40;;;;;;;8.83;5.80;;;6.90;99.90;;;;;;5063935;28;20507;-73
2021/11/10 11:04:15;;;;;;;11.20;6.30;;;6.90;99.90;;;;;;5065065;28;20464;-73
2021/11/10 11:06:50;;;;;;;9.60;6.00;;;6.90;99.90;;;;;;5067274;28;20473;-73
2021/11/10 11:09:23;;;;;;;13.70;6.83;;;7.00;99.90;;;;;;5067153;28;20461;-72
2021/11/10 11:14:41;;;;;;;;;;;;;;;;;;;;;
2021/11/10 11:17:26;;;;;;;11.33;6.93;;;7.10;99.90;;;;;;5065711;28;20512;-73
2021/11/10 11:19:58;;;;;;;11.50;6.10;;;7.10;99.90;;;;;;5047957;28;20476;-73
2021/11/10 11:22:29;;;;;;;9.23;6.00;;;7.10;99.90;;;;;;5065933;28;20465;-72
2021/11/10 11:24:56;;;;;;;8.57;6.20;;;7.10;99.90;;;;;;5064942;28;20477;-73
2021/11/10 11:27:23;;;;;;;7.70;6.33;;;7.10;99.90;;;;;;5066087;28;20473;-73
2021/11/10 11:30:13;;;;;;;10.03;6.07;;;7.20;99.90;;;;;;5066426;28;20848;-73
2021/11/10 11:32:50;;;;;;;10.97;6.93;;;7.20;99.90;;;;;;5064217;28;20826;-72
2021/11/10 11:35:30;;;;;;;13.27;6.67;;;7.20;99.90;;;;;;5065801;28;20461;-74
2021/11/10 11:38:00;;;;;;;10.83;5.73;;;7.20;99.90;;;;;;5048761;28;20519;-73
2021/11/10 11:40:27;;;;;;;8.37;5.70;;;7.20;99.90;;;;;;5062935;28;20465;-73
2021/11/10 11:42:55;;;;;;;7.00;5.53;;;7.20;99.90;;;;;;5061785;28;20822;-73
2021/11/10 11:45:26;;;;;;;7.70;5.90;;;7.20;99.90;;;;;;5066798;28;20475;-73
2021/11/10 11:47:54;;;;;;;12.07;6.63;;;7.20;99.90;;;;;;5065780;28;20461;-73
2021/11/10 11:50:21;;;;;;;7.90;5.70;;;7.30;99.90;;;;;;5066275;28;20502;-73
2021/11/10 11:52:50;;;;;;;8.33;5.83;;;7.30;99.90;;;;;;5066605;28;20978;-73
2021/11/10 11:55:22;;;;;;;11.50;6.30;;;7.20;99.90;;;;;;5066537;28;20449;-73
2021/11/10 11:58:07;;;;;;;8.40;6.10;;;7.30;99.90;;;;;;5050500;28;20462;-72
2021/11/10 12:00:48;;;;;;;13.33;6.63;;;7.20;99.90;;;;;;5066983;28;20911;-73
2021/11/10 12:03:22;;;;;;;9.93;6.70;;;7.20;99.90;;;;;;5049143;28;20445;-73
2021/11/10 12:05:53;;;;;;;11.33;6.57;;;7.30;99.90;;;;;;5049522;28;20542;-73
2021/11/10 12:08:47;;;;;;;7.67;6.40;;;7.30;99.90;;;;;;5065678;28;20545;-73
2021/11/10 12:11:19;;;;;;;11.20;7.70;;;7.40;99.90;;;;;;5044719;28;20479;-73
2021/11/10 12:14:10;;;;;;;13.23;7.20;;;7.40;99.90;;;;;;5067440;28;20471;-73
2021/11/10 12:16:51;;;;;;;9.50;6.20;;;7.40;99.90;;;;;;5041860;28;20473;-72
2021/11/10 12:19:31;;;;;;;12.03;6.43;;;7.50;99.90;;;;;;5044359;28;20458;-73
2021/11/10 12:22:03;;;;;;;10.37;5.93;;;7.50;99.90;;;;;;5055298;28;20514;-72
2021/11/10 12:24:28;;;;;;;8.40;6.27;;;7.60;99.90;;;;;;5045589;28;20450;-72
2021/11/10 12:27:10;;;;;;;10.10;6.57;;;7.60;99.90;;;;;;5044095;28;21022;-73
2021/11/10 12:29:49;;;;;;;12.80;8.17;;;7.60;99.90;;;;;;5062150;28;20607;-72
2021/11/10 12:32:17;;;;;;;9.80;6.60;;;7.60;99.90;;;;;;5028895;28;21006;-72
2021/11/10 12:34:48;;;;;;;8.80;6.80;;;7.60;99.90;;;;;;5046467;28;20997;-73
2021/11/10 12:37:28;;;;;;;8.63;6.47;;;7.60;99.90;;;;;;5036860;28;21061;-72
2021/11/10 12:40:10;;;;;;;10.40;6.00;;;7.70;99.90;;;;;;5056200;28;20472;-72
2021/11/10 12:42:54;;;;;;;9.17;6.50;;;7.60;99.90;;;;;;5063748;28;20463;-72
2021/11/10 12:45:24;;;;;;;9.60;6.63;;;7.60;99.90;;;;;;5048746;28;20470;-74
2021/11/10 12:47:51;;;;;;;11.80;6.97;;;7.60;99.90;;;;;;5056674;28;20465;-73
2021/11/10 12:50:34;;;;;;;10.10;7.03;;;7.70;99.90;;;;;;5049355;28;20461;-72
2021/11/10 12:53:04;;;;;;;8.50;6.43;;;7.70;99.90;;;;;;5044931;28;20462;-72
2021/11/10 12:55:35;;;;;;;10.43;6.57;;;7.70;99.90;;;;;;5063802;28;20464;-72
2021/11/10 12:58:19;;;;;;;8.30;6.53;;;7.80;99.90;;;;;;5081981;28;20570;-73
2021/11/10 13:00:45;;;;;;;13.13;7.40;;;7.90;99.90;;;;;;5046684;28;20828;-73
2021/11/10 13:03:35;;;;;;;11.10;6.93;;;7.90;99.90;;;;;;5045395;28;20442;-72
2021/11/10 13:06:08;;;;;;;10.57;7.00;;;7.90;99.90;;;;;;5043584;28;20475;-73